Flight Track Log - Related Links

Times and Time Zones

All times are in EDT time to prevent confusion due to time zone crossing. See the UAL906 flight status page for this flight to view local times or setup timezone preferences in your user account.

Time Position Orientation Groundspeed Altitude Reporting Facility
EDT Latitude Longitude Course Direction KTS MPH feet Rate Location/Type
Fri 07:07:00 AM 50.2347 8.0974 308° West  Level FlightAware Approximate
Fri 07:08:00 AM 50.3057 7.9388 308° West  Level FlightAware Approximate
Fri 07:09:00 AM 50.3811 7.7842 305° West  Level FlightAware Approximate
Fri 07:10:00 AM 50.4518 7.6240 305° West  Level FlightAware Approximate
Fri 07:11:00 AM 50.5223 7.4633 305° West  Level FlightAware Approximate
Fri 07:12:00 AM 50.5911 7.3006 303° West  Level FlightAware Approximate
Fri 07:13:00 AM 50.6586 7.1363 303° West  Level FlightAware Approximate
Fri 07:14:00 AM 50.7302 6.9761 306° West  Level FlightAware Approximate
Fri 07:15:00 AM 50.8021 6.8160 305° West  Level FlightAware Approximate
Fri 07:16:00 AM 50.8712 6.6526 304° West  Level FlightAware Approximate
Fri 07:17:00 AM 50.9337 6.4827 309° West  Level FlightAware Approximate
Fri 07:18:00 AM 51.0109 6.3282 309° West  Level FlightAware Approximate
Fri 07:19:00 AM 51.0803 6.1645 304° West  Level FlightAware Approximate
Fri 07:20:00 AM 51.1490 5.9997 304° West  Level FlightAware Approximate
Fri 07:21:00 AM 51.2172 5.8341 303° West  Level FlightAware Approximate
Fri 07:22:00 AM 51.2850 5.6679 303° West  Level FlightAware Approximate
Fri 07:23:00 AM 51.3525 5.5011 303° West  Level FlightAware Approximate
Fri 07:24:00 AM 51.4193 5.3333 302° West  Level FlightAware Approximate
Fri 07:25:00 AM 51.4845 5.1637 303° West  Level FlightAware Approximate
Fri 07:26:00 AM 51.5518 4.9960 303° West  Level FlightAware Approximate
Fri 07:27:00 AM 51.6188 4.8277 303° West  Level FlightAware Approximate
Fri 07:28:00 AM 51.6855 4.6589 303° West  Level FlightAware Approximate
Fri 07:29:00 AM 51.7520 4.4896 302° West  Level FlightAware Approximate
Fri 07:30:00 AM 51.8183 4.3198 302° West  Level FlightAware Approximate
Fri 07:30:44 AM 51.8457 5.7371 302° West 1 1 34,000  Level FlightAware UK
Fri 07:31:20 AM 51.9027 5.6612 321° Northwest 478 550 34,000  Level FlightAware UK
Fri 07:32:02 AM 51.9648 5.5690 318° Northwest 476 548 34,000  Level FlightAware UK
Fri 07:32:38 AM 52.0190 5.4892 318° Northwest 476 548 34,000 -91 Level FlightAware UK
Fri 07:33:08 AM 52.0627 5.4214 316° Northwest 476 548 33,900 -91 Descending FlightAware UK
Fri 07:33:44 AM 52.1173 5.3416 318° Northwest 476 548 33,900  Level FlightAware UK
Fri 07:34:14 AM 52.1613 5.2734 316° Northwest 478 550 33,900  Level FlightAware UK
Fri 07:36:08 AM 52.3263 5.0094 316° Northwest 478 550 33,900  Level FlightAware UK
Fri 07:36:56 AM 52.3955 4.8960 315° West 478 550 33,900  Level FlightAware UK
Fri 07:37:32 AM 52.4445 4.8090 313° West 480 552 33,900  Level FlightAware UK
Fri 07:38:08 AM 52.5026 4.7307 321° Northwest 480 552 33,900  Level FlightAware UK
Fri 07:38:38 AM 52.5481 4.6632 318° Northwest 480 552 33,900  Level FlightAware UK
Fri 07:40:01 AM 52.6753 4.4732 318° Northwest 480 552 33,900 37 Level FlightAware UK
Fri 07:41:19 AM 52.7915 4.2946 317° Northwest 478 550 34,000 24 Climbing FlightAware UK
Fri 07:44:07 AM 53.1333 4.0888 340° North 476 548 34,000  Level FlightAware UK
Fri 07:45:37 AM 53.3279 4.0085 346° North 474 545 34,000  Level FlightAware UK
Fri 07:46:31 AM 53.4445 3.9602 346° North 474 545 34,000  Level FlightAware UK
Fri 07:47:49 AM 53.6118 3.8866 345° North 476 548 34,000  Level FlightAware UK
Fri 07:48:31 AM 53.7010 3.8429 344° North 472 543 34,000  Level FlightAware UK
Fri 07:49:01 AM 53.7649 3.8125 344° North 474 545 34,000  Level FlightAware UK
Fri 07:49:31 AM 53.8291 3.7823 345° North 476 548 34,000  Level FlightAware UK
Fri 07:50:01 AM 53.8933 3.7521 345° North 474 545 34,000  Level FlightAware UK
Fri 07:50:31 AM 53.9576 3.7217 344° North 476 548 34,000  Level FlightAware UK
Fri 07:51:07 AM 54.0346 3.6852 344° North 474 545 34,000  Level FlightAware UK
Fri 07:51:49 AM 54.1240 3.6423 344° North 476 548 34,000  Level FlightAware UK
Fri 07:52:19 AM 54.1883 3.6114 344° North 478 550 34,000  Level FlightAware UK
Fri 07:52:49 AM 54.2526 3.5804 344° North 476 548 34,000  Level FlightAware UK
Fri 07:53:43 AM 54.3685 3.5245 344° North 478 550 34,000  Level FlightAware UK
Fri 07:54:43 AM 54.4973 3.4618 344° North 480 552 34,000  Level FlightAware UK
Fri 07:55:37 AM 54.6126 3.4050 344° North 480 552 34,000  Level FlightAware UK
Fri 07:57:49 AM 54.8928 3.2661 344° North 476 548 34,000  Level FlightAware UK
Fri 07:58:25 AM 54.9597 3.2017 331° Northwest 474 545 34,000  Level FlightAware UK
Fri 07:58:43 AM 54.9835 3.1535 311° West 478 550 34,000  Level FlightAware UK
Fri 07:59:19 AM 55.0162 3.0414 297° West 478 550 34,000  Level FlightAware UK
Fri 07:59:19 AM 55.0240 3.2000 297° West 479 551 34,000  Level FlightAware ADS-B
Fri 07:59:44 AM 55.0690 3.1770 297° West 479 551 34,000  Level FlightAware ADS-B
Fri 07:59:49 AM 55.0412 2.9452 297° West 478 550 34,000  Level FlightAware UK
Fri 08:00:25 AM 55.0713 2.8313 297° West 480 552 34,000  Level FlightAware UK
Fri 08:00:55 AM 55.0968 2.7350 295° West 480 552 34,000  Level FlightAware UK
Fri 08:01:25 AM 55.1225 2.6389 295° West 482 555 34,000  Level FlightAware UK
Fri 08:01:58 AM 55.1490 2.5450 295° West 437 503 34,000 -77 Level FlightAware ADS-B
Fri 08:02:43 AM 55.1897 2.3895 295° West 482 555 33,900  Descending FlightAware UK
Fri 08:02:58 AM 55.2020 2.3440 295° West 436 502 34,000 200 Climbing FlightAware ADS-B
Fri 08:03:13 AM 55.2153 2.2929 295° West 482 555 34,000  Level FlightAware UK
Fri 08:03:39 AM 55.2360 2.2160 295° West 437 503 34,000  Level FlightAware ADS-B
Fri 08:03:43 AM 55.2409 2.1960 295° West 484 557 34,000  Level FlightAware UK
Fri 08:04:13 AM 55.2660 2.1040 295° West 435 501 34,000  Level FlightAware ADS-B
Fri 08:04:53 AM 55.2990 1.9760 295° West 436 502 34,000  Level FlightAware ADS-B
Fri 08:05:37 AM 55.3363 1.8301 295° West 476 548 34,000  Level FlightAware UK
Fri 08:06:19 AM 55.3713 1.6953 295° West 478 550 34,000  Level FlightAware UK
Fri 08:07:06 AM 55.4110 1.5413 295° West 478 550 34,000  Level FlightAware UK
Fri 08:07:42 AM 55.4408 1.4246 294° West 476 548 34,000 -83 Level FlightAware UK
Fri 08:08:18 AM 55.4702 1.3075 294° West 474 545 33,900  Descending FlightAware UK
Fri 08:08:54 AM 55.4996 1.1909 294° West 476 548 34,000 111 Climbing FlightAware UK
Fri 08:09:12 AM 55.5130 1.1370 294° West 439 505 34,000  Level FlightAware ADS-B
Fri 08:09:52 AM 55.5470 1.0040 294° West 440 506 34,000  Level FlightAware ADS-B
Fri 08:10:24 AM 55.5733 0.8969 294° West 476 548 34,000  Level FlightAware UK
Fri 08:10:38 AM 55.5830 0.8570 294° West 441 507 34,000  Level FlightAware ADS-B
Fri 08:11:36 AM 55.6319 0.6595 294° West 478 550 34,000  Level FlightAware UK
Fri 08:11:47 AM 55.6370 0.6400 294° West 443 510 34,000  Level FlightAware ADS-B
Fri 08:12:36 AM 55.6806 0.4606 294° West 482 555 34,000  Level FlightAware UK
Fri 08:12:39 AM 55.6810 0.4580 294° West 445 512 34,000  Level FlightAware ADS-B
Fri 08:13:03 AM 55.7020 0.3740 294° West 446 513 34,000 -69 Level FlightAware ADS-B
Fri 08:14:06 AM 55.7533 0.1594 294° West 478 550 33,900  Descending FlightAware UK
Fri 08:14:23 AM 55.7660 0.1060 294° West 446 513 34,000 105 Climbing FlightAware ADS-B
Fri 08:15:03 AM 55.7990 -0.0300 293° West 446 513 34,000  Level FlightAware ADS-B
Fri 08:15:32 AM 55.8210 -0.1260 292° West 444 511 34,000  Level FlightAware ADS-B
Fri 08:16:07 AM 55.8490 -0.2440 293° West 444 511 34,000  Level FlightAware ADS-B
Fri 08:16:35 AM 55.8734 -0.3460 293° West 480 552 34,000  Level FlightAware UK
Fri 08:16:52 AM 55.8850 -0.3970 293° West 445 512 34,000  Level FlightAware ADS-B
Fri 08:17:27 AM 55.9130 -0.5160 293° West 446 513 34,000  Level FlightAware ADS-B
Fri 08:17:59 AM 55.9397 -0.6316 293° West 482 555 34,000  Level FlightAware UK
Fri 08:18:12 AM 55.9490 -0.6700 293° West 447 514 34,000 -200 Level FlightAware ADS-B
Fri 08:18:29 AM 55.9635 -0.7342 293° West 480 552 33,900  Descending FlightAware UK
Fri 08:18:48 AM 55.9700 -0.7610 293° West 446 513 34,000 125 Climbing FlightAware ADS-B
Fri 08:19:17 AM 56.0010 -0.8988 293° West 480 552 34,000  Level FlightAware UK
Fri 08:19:33 AM 56.0130 -0.9500 293° West 446 513 34,000  Level FlightAware ADS-B
Fri 08:20:13 AM 56.0430 -1.0840 292° West 446 513 34,000  Level FlightAware ADS-B
Fri 08:20:48 AM 56.0760 -1.2030 296° West 456 525 34,000  Level FlightAware ADS-B
Fri 08:21:33 AM 56.1320 -1.3400 306° West 453 521 34,000 -92 Level FlightAware ADS-B
Fri 08:21:53 AM 56.1580 -1.4045 306° West 482 555 33,900  Descending FlightAware UK
Fri 08:22:08 AM 56.1740 -1.4480 306° West 451 519 34,000  Climbing FlightAware ADS-B
Fri 08:22:29 AM 56.1998 -1.5173 306° West 482 555 33,900  Descending FlightAware UK
Fri 08:22:43 AM 56.2150 -1.5600 306° West 451 519 34,000 102 Climbing FlightAware ADS-B
Fri 08:23:28 AM 56.2681 -1.7067 306° West 480 552 34,000  Level FlightAware UK
Fri 08:23:38 AM 56.2770 -1.7310 306° West 454 522 34,000  Level FlightAware ADS-B
Fri 08:24:04 AM 56.3091 -1.8206 306° West 478 550 34,000  Level FlightAware UK
Fri 08:24:08 AM 56.3120 -1.8270 306° West 455 524 34,000  Level FlightAware ADS-B
Fri 08:24:40 AM 56.3529 -1.9310 306° West 480 552 34,000  Level FlightAware UK
Fri 08:24:48 AM 56.3600 -1.9500 306° West 451 519 34,000  Level FlightAware ADS-B
Fri 08:25:31 AM 56.3910 -2.0300 306° West 458 527 34,000  Level FlightAware ADS-B
Fri 08:25:34 AM 56.4181 -2.0992 306° West 480 552 34,000  Level FlightAware UK
Fri 08:26:04 AM 56.4543 -2.1933 306° West 480 552 34,000  Level FlightAware UK
Fri 08:26:06 AM 56.4530 -2.1910 306° West 459 528 34,000  Level FlightAware ADS-B
Fri 08:26:47 AM 56.5040 -2.3240 305° West 460 529 34,000  Level FlightAware ADS-B
Fri 08:27:30 AM 56.5470 -2.4370 305° West 461 531 34,000  Level FlightAware ADS-B
Fri 08:27:57 AM 56.5870 -2.5430 304° West 461 531 34,000 -130 Level FlightAware ADS-B
Fri 08:28:16 AM 56.6123 -2.6113 304° West 482 555 33,900  Descending FlightAware UK
Fri 08:28:37 AM 56.6350 -2.6710 304° West 462 532 34,000  Climbing FlightAware ADS-B
Fri 08:29:16 AM 56.6842 -2.8033 304° West 480 552 33,900  Descending FlightAware UK
Fri 08:29:18 AM 56.6820 -2.7980 304° West 463 533 34,000 146 Climbing FlightAware ADS-B
Fri 08:29:57 AM 56.7310 -2.9290 304° West 463 533 34,000 -94 Level FlightAware ADS-B
Fri 08:30:22 AM 56.7630 -3.0155 304° West 484 557 33,900  Descending FlightAware UK
Fri 08:30:52 AM 56.7988 -3.1128 304° West 484 557 34,000 103 Climbing FlightAware UK
Fri 08:31:20 AM 56.8180 -3.1640 304° West 464 534 34,000 -128 Level FlightAware ADS-B
Fri 08:31:39 AM 56.8558 -3.2679 304° West 484 557 33,900  Descending FlightAware UK
Fri 08:31:43 AM 56.8590 -3.2770 304° West 465 535 34,000  Climbing FlightAware ADS-B
Fri 08:32:09 AM 56.8916 -3.3656 304° West 484 557 33,900  Descending FlightAware UK
Fri 08:32:29 AM 56.9130 -3.4250 304° West 464 534 34,000 109 Climbing FlightAware ADS-B
Fri 08:33:04 AM 56.9540 -3.5380 304° West 464 534 34,000  Level FlightAware ADS-B
Fri 08:33:21 AM 56.9765 -3.6005 304° West 484 557 34,000  Level FlightAware UK
Fri 08:33:53 AM 57.0080 -3.6870 304° West 463 533 34,000  Level FlightAware ADS-B
Fri 08:34:30 AM 57.0550 -3.8200 304° West 458 527 34,000 -150 Level FlightAware ADS-B
Fri 08:34:33 AM 57.0612 -3.8360 304° West 478 550 33,900  Descending FlightAware UK
Fri 08:35:03 AM 57.0963 -3.9342 304° West 480 552 34,000 158 Climbing FlightAware UK
Fri 08:35:11 AM 57.1030 -3.9520 304° West 458 527 34,000  Level FlightAware ADS-B
Fri 08:35:33 AM 57.1311 -4.0330 304° West 476 548 34,000  Level FlightAware UK
Fri 08:35:45 AM 57.1430 -4.0670 304° West 459 528 34,000  Level FlightAware ADS-B
Fri 08:36:27 AM 57.1940 -4.2108 304° West 482 555 34,000  Level FlightAware UK
Fri 08:36:31 AM 57.1970 -4.2200 304° West 466 536 34,000  Level FlightAware ADS-B
Fri 08:37:05 AM 57.2390 -4.3380 303° West 467 537 34,000  Level FlightAware ADS-B
Fri 08:37:21 AM 57.2573 -4.3910 303° West 484 557 34,000 400 Level FlightAware UK
Fri 08:37:50 AM 57.2890 -4.4820 303° West 462 532 34,300 667 Climbing FlightAware ADS-B
Fri 08:37:57 AM 57.2992 -4.5118 303° West 478 550 34,400 324 Climbing FlightAware UK
Fri 08:38:27 AM 57.3342 -4.6126 303° West 482 555 34,500 300 Climbing FlightAware UK
Fri 08:38:37 AM 57.3440 -4.6400 303° West 473 544 34,600 400 Climbing FlightAware ADS-B
Fri 08:38:57 AM 57.3698 -4.7154 303° West 482 555 34,700 450 Climbing FlightAware UK
Fri 08:39:17 AM 57.3870 -4.7640 303° West 478 550 34,900 300 Climbing FlightAware ADS-B
Fri 08:39:57 AM 57.4406 -4.9223 303° West 486 559 35,000 130 Climbing FlightAware UK
Fri 08:40:03 AM 57.4460 -4.9390 303° West 478 550 35,000  Level FlightAware ADS-B
Fri 08:40:33 AM 57.4829 -5.0460 303° West 484 557 35,000  Level FlightAware UK
Fri 08:40:38 AM 57.4860 -5.0570 303° West 478 550 35,000 -200 Level FlightAware ADS-B
Fri 08:41:03 AM 57.5181 -5.1501 303° West 486 559 34,900  Descending FlightAware UK
Fri 08:41:33 AM 57.5531 -5.2543 302° West 484 557 35,000 188 Climbing FlightAware UK
Fri 08:41:35 AM 57.5530 -5.2550 302° West 477 549 35,000  Level FlightAware ADS-B
Fri 08:42:03 AM 57.5883 -5.3583 302° West 486 559 35,000  Level FlightAware UK
Fri 08:42:09 AM 57.5630 -5.2840 302° West 473 544 35,000  Level FlightAware ADS-B
Fri 08:42:33 AM 57.6232 -5.4629 302° West 488 562 35,000  Level FlightAware UK
Fri 08:42:54 AM 57.6460 -5.5320 302° West 473 544 35,000  Level FlightAware ADS-B
Fri 08:43:03 AM 57.6582 -5.5677 302° West 486 559 35,000  Level FlightAware UK
Fri 08:43:33 AM 57.6930 -5.6728 302° West 486 559 35,000  Level FlightAware UK
Fri 08:43:39 AM 57.6970 -5.6870 302° West 473 544 35,000  Level FlightAware ADS-B
Fri 08:44:03 AM 57.7277 -5.7778 302° West 484 557 35,000  Level FlightAware UK
Fri 08:44:10 AM 57.7330 -5.7950 302° West 473 544 35,000  Level FlightAware ADS-B
Fri 08:44:33 AM 57.7623 -5.8829 302° West 482 555 35,000  Level FlightAware UK
Fri 08:44:49 AM 57.7790 -5.9330 302° West 472 543 35,000  Level FlightAware ADS-B
Fri 08:45:29 AM 57.8240 -6.0750 302° West 475 547 35,000  Level FlightAware ADS-B
Fri 08:45:33 AM 57.8307 -6.0936 302° West 482 555 35,000  Level FlightAware UK
Fri 08:46:03 AM 57.8650 -6.1990 302° West 482 555 35,000  Level FlightAware UK
Fri 08:46:19 AM 57.8820 -6.2500 302° West 472 543 35,000  Level FlightAware ADS-B
Fri 08:46:55 AM 57.9220 -6.3760 301° West 476 548 35,000  Level FlightAware ADS-B
Fri 08:47:25 AM 57.9570 -6.4840 301° West 476 548 35,000  Level FlightAware ADS-B
Fri 08:48:06 AM 58.0030 -6.6280 301° West 476 548 35,000 -136 Level FlightAware ADS-B
Fri 08:48:09 AM 58.0078 -6.6436 301° West 480 552 34,900 -182 Descending FlightAware UK
Fri 08:48:39 AM 58.0415 -6.7502 301° West 480 552 34,900 146 Level FlightAware UK
Fri 08:48:50 AM 58.0530 -6.7870 301° West 476 548 35,000 200 Climbing FlightAware ADS-B
Fri 08:49:09 AM 58.0753 -6.8570 301° West 478 550 35,000  Level FlightAware UK
Fri 08:49:30 AM 58.0970 -6.9270 301° West 477 549 35,000  Level FlightAware ADS-B
Fri 08:50:07 AM 58.1370 -7.0540 301° West 479 551 35,000 154 Level FlightAware ADS-B
Fri 08:50:09 AM 58.1424 -7.0719 301° West 482 555 35,100 563 Climbing FlightAware UK
Fri 08:50:39 AM 58.1761 -7.1804 301° West 482 555 35,300 391 Climbing FlightAware UK
Fri 08:50:55 AM 58.1930 -7.2350 301° West 484 557 35,400 536 Climbing FlightAware ADS-B
Fri 08:51:35 AM 58.2380 -7.3820 301° West 485 558 35,800 545 Climbing FlightAware ADS-B
Fri 08:51:39 AM 58.2441 -7.4002 301° West 486 559 35,800 353 Level FlightAware UK
Fri 08:52:09 AM 58.2780 -7.5100 301° West 484 557 36,000 286 Climbing FlightAware UK
Fri 08:52:21 AM 58.2900 -7.5500 301° West 485 558 36,000  Level FlightAware ADS-B
Fri 08:52:39 AM 58.3115 -7.6203 301° West 484 557 36,000  Level FlightAware UK
Fri 08:52:57 AM 58.3300 -7.6820 301° West 486 559 36,000  Level FlightAware ADS-B
Fri 08:53:37 AM 58.3760 -7.8340 301° West 487 560 36,000  Level FlightAware ADS-B
Fri 08:53:44 AM 58.3849 -7.8637 301° West 488 562 36,000 -162 Level FlightAware UK
Fri 08:54:14 AM 58.4185 -7.9750 301° West 486 559 35,900  Descending FlightAware UK
Fri 08:54:25 AM 58.4260 -8.0000 301° West 486 559 36,000  Climbing FlightAware ADS-B
Fri 08:54:44 AM 58.4522 -8.0862 301° West 486 559 35,900  Descending FlightAware UK
Fri 08:55:02 AM 58.4710 -8.1510 301° West 486 559 36,000 100 Climbing FlightAware ADS-B
Fri 08:55:44 AM 58.5185 -8.3099 301° West 486 559 36,000  Level FlightAware UK
Fri 08:55:48 AM 58.5200 -8.3180 301° West 486 559 36,000 -200 Level FlightAware ADS-B
Fri 08:56:14 AM 58.5514 -8.4221 301° West 486 559 35,900  Descending FlightAware UK
Fri 08:56:24 AM 58.5600 -8.4520 301° West 486 559 36,000 200 Climbing FlightAware ADS-B
Fri 08:56:44 AM 58.5843 -8.5344 301° West 486 559 36,000  Level FlightAware UK
Fri 08:57:13 AM 58.6150 -8.6390 301° West 483 556 36,000 -100 Level FlightAware ADS-B
Fri 08:57:44 AM 58.6502 -8.7594 301° West 488 562 35,900  Descending FlightAware UK
Fri 08:57:53 AM 58.6570 -8.7840 301° West 482 555 36,000  Climbing FlightAware ADS-B
Fri 08:58:14 AM 58.6828 -8.8724 301° West 488 562 35,900  Descending FlightAware UK
Fri 08:58:38 AM 58.7080 -8.9610 301° West 483 556 36,000 74 Climbing FlightAware ADS-B
Fri 08:59:35 AM 58.7610 -9.1470 299° West 483 556 36,000  Level FlightAware ADS-B
Fri 09:00:09 AM 58.8050 -9.3020 299° West 484 557 36,000  Level FlightAware ADS-B
Fri 09:00:39 AM 58.8370 -9.4150 299° West 483 556 36,000  Level FlightAware ADS-B
Fri 09:01:25 AM 58.8870 -9.5920 299° West 484 557 36,000  Level FlightAware ADS-B
Fri 09:02:05 AM 58.9300 -9.7460 298° West 484 557 36,000  Level FlightAware ADS-B
Fri 09:02:45 AM 58.9710 -9.8950 298° West 488 562 36,000  Level FlightAware ADS-B
Fri 09:03:30 AM 59.0200 -10.0770 298° West 488 562 36,000  Level FlightAware ADS-B
Fri 09:04:11 AM 59.0600 -10.2380 296° West 493 567 36,000  Level FlightAware ADS-B
Fri 09:04:57 AM 59.1040 -10.4170 296° West 494 568 36,000  Level FlightAware ADS-B
Fri 09:05:48 AM 59.1410 -10.5680 296° West 494 568 36,000  Level FlightAware ADS-B
Fri 09:06:31 AM 59.1980 -10.7990 296° West 492 566 36,000  Level FlightAware ADS-B
Fri 09:07:12 AM 59.2450 -10.9530 301° West 497 572 36,000  Level FlightAware ADS-B
Fri 09:07:56 AM 59.2950 -11.1300 299° West 496 571 36,000  Level FlightAware ADS-B
Fri 09:08:36 AM 59.3340 -11.2880 296° West 497 572 36,000  Level FlightAware ADS-B
Fri 09:09:21 AM 59.3780 -11.4750 295° West 497 572 36,000  Level FlightAware ADS-B
Fri 09:10:02 AM 59.4090 -11.6060 295° West 496 571 36,000  Level FlightAware ADS-B
Fri 09:10:46 AM 59.4350 -11.7180 295° West 494 568 36,000  Level FlightAware ADS-B
Fri 09:11:43 AM 59.4740 -11.8850 295° West 495 570 36,000  Level FlightAware ADS-B
Fri 09:12:23 AM 59.5300 -12.1350 294° West 495 570 36,000  Level FlightAware ADS-B
Fri 09:13:24 AM 59.5760 -12.3510 293° West 495 570 36,000  Level FlightAware ADS-B
Fri 09:14:01 AM 59.6040 -12.4820 293° West 495 570 36,000  Level FlightAware ADS-B
Fri 09:14:49 AM 59.6410 -12.6520 293° West 495 570 36,000  Level FlightAware ADS-B
Fri 09:15:23 AM 59.6670 -12.7730 293° West 495 570 36,000  Level FlightAware ADS-B
Fri 09:16:12 AM 59.7040 -12.9470 293° West 495 570 36,000  Level FlightAware ADS-B
Fri 09:16:51 AM 59.7340 -13.0850 293° West 495 570 36,000  Level FlightAware ADS-B
Fri 09:17:28 AM 59.7620 -13.2170 293° West 495 570 36,000  Level FlightAware ADS-B
Fri 09:18:17 AM 59.7990 -13.3910 293° West 495 570 36,000  Level FlightAware ADS-B
Fri 09:18:54 AM 59.8270 -13.5230 293° West 495 570 36,000  Level FlightAware ADS-B
Fri 09:19:55 AM 59.8730 -13.7410 293° West 495 570 36,000  Level FlightAware ADS-B
Fri 09:21:07 AM 59.9280 -13.9980 293° West 495 570 36,000  Level FlightAware ADS-B
Fri 09:21:44 AM 59.9560 -14.1310 293° West 495 570 36,000  Level FlightAware ADS-B
Fri 09:24:00 AM 60.0149 -14.6836 282° West  Level Estimated
Fri 09:25:00 AM 60.0401 -14.9280 282° West  Level Estimated
Fri 09:26:00 AM 60.0649 -15.1727 282° West  Level Estimated
Fri 09:27:00 AM 60.0892 -15.4179 281° West  Level Estimated
Fri 09:28:00 AM 60.1131 -15.6634 281° West  Level Estimated
Fri 09:29:00 AM 60.1365 -15.9092 281° West  Level Estimated
Fri 09:30:00 AM 60.1595 -16.1554 281° West  Level Estimated
Fri 09:31:00 AM 60.1819 -16.4019 281° West  Level Estimated
Fri 09:32:00 AM 60.2040 -16.6488 280° West  Level Estimated
Fri 09:33:00 AM 60.2256 -16.8960 280° West  Level Estimated
Fri 09:34:00 AM 60.2467 -17.1435 280° West  Level Estimated
Fri 09:35:00 AM 60.2674 -17.3913 280° West  Level Estimated
Fri 09:36:00 AM 60.2876 -17.6395 279° West  Level Estimated
Fri 09:37:00 AM 60.3073 -17.8879 279° West  Level Estimated
Fri 09:38:00 AM 60.3266 -18.1366 279° West  Level Estimated
Fri 09:38:20 AM 60.8640 -19.0190 279° West 508 585 36,000  Level FlightAware ADS-B
Fri 09:38:58 AM 60.8920 -19.1940 288° West 508 585 36,000  Level FlightAware ADS-B
Fri 09:39:52 AM 60.9300 -19.4360 288° West 507 583 36,000  Level FlightAware ADS-B
Fri 09:40:30 AM 60.9520 -19.5850 287° West 507 583 36,000  Level FlightAware ADS-B
Fri 09:41:18 AM 60.9920 -19.8310 289° West 506 582 36,000  Level FlightAware ADS-B
Fri 09:41:49 AM 61.0140 -19.9800 287° West 507 583 36,000  Level FlightAware ADS-B
Fri 09:42:40 AM 61.0470 -20.2130 286° West 506 582 36,000  Level FlightAware ADS-B
Fri 09:43:26 AM 61.0760 -20.4240 286° West 506 582 36,000  Level FlightAware ADS-B
Fri 09:44:10 AM 61.1040 -20.6310 286° West 506 582 36,000  Level FlightAware ADS-B
Fri 09:44:49 AM 61.1260 -20.7930 286° West 507 583 36,000  Level FlightAware ADS-B
Fri 09:45:33 AM 61.1490 -20.9680 285° West 507 583 36,000  Level FlightAware ADS-B
Fri 09:46:09 AM 61.1670 -21.1120 285° West 507 583 36,000  Level FlightAware ADS-B
Fri 09:47:24 AM 61.2060 -21.4120 285° West 507 583 36,000  Level FlightAware ADS-B
Fri 09:48:04 AM 61.2480 -21.7300 285° West 510 587 36,000  Level FlightAware ADS-B
Fri 09:48:43 AM 61.2710 -21.9150 285° West 511 588 36,000  Level FlightAware ADS-B
Fri 09:49:30 AM 61.2950 -22.1090 285° West 511 588 36,000  Level FlightAware ADS-B
Fri 09:50:14 AM 61.3240 -22.3440 285° West 512 589 36,000  Level FlightAware ADS-B
Fri 09:51:08 AM 61.3550 -22.6010 284° West 511 588 36,000  Level FlightAware ADS-B
Fri 09:51:50 AM 61.3790 -22.8010 284° West 511 588 36,000  Level FlightAware ADS-B
Fri 09:52:31 AM 61.4020 -23.0010 284° West 510 587 36,000  Level FlightAware ADS-B
Fri 09:53:15 AM 61.4260 -23.2110 284° West 509 586 36,000  Level FlightAware ADS-B
Fri 09:53:52 AM 61.4450 -23.3830 283° West 509 586 36,000  Level FlightAware ADS-B
Fri 09:54:36 AM 61.4690 -23.5910 284° West 509 586 36,000  Level FlightAware ADS-B
Fri 09:55:12 AM 61.4880 -23.7660 283° West 508 585 36,000  Level FlightAware ADS-B
Fri 09:55:42 AM 61.5040 -23.9110 283° West 508 585 36,000  Level FlightAware ADS-B
Fri 09:56:22 AM 61.5240 -24.1040 282° West 509 586 36,000  Level FlightAware ADS-B
Fri 09:57:04 AM 61.5460 -24.3050 283° West 509 586 36,000  Level FlightAware ADS-B
Fri 09:57:47 AM 61.5670 -24.5090 282° West 508 585 36,000  Level FlightAware ADS-B
Fri 09:58:25 AM 61.5860 -24.6930 282° West 509 586 36,000  Level FlightAware ADS-B
Fri 09:59:11 AM 61.6080 -24.9140 282° West 508 585 36,000  Level FlightAware ADS-B
Fri 09:59:51 AM 61.6270 -25.1040 282° West 508 585 36,000  Level FlightAware ADS-B
Fri 10:00:51 AM 61.6450 -25.2920 281° West 508 585 36,000  Level FlightAware ADS-B
Fri 10:01:31 AM 61.6740 -25.5860 282° West 508 585 36,000  Level FlightAware ADS-B
Fri 10:02:26 AM 61.6910 -25.7710 281° West 508 585 36,000  Level FlightAware ADS-B
Fri 10:03:24 AM 61.7220 -26.1130 281° West 508 585 36,000  Level FlightAware ADS-B
Fri 10:03:58 AM 61.7330 -26.2540 279° West 508 585 36,000  Level FlightAware ADS-B
Fri 10:04:46 AM 61.7500 -26.4540 280° West 508 585 36,000  Level FlightAware ADS-B
Fri 10:05:32 AM 61.7660 -26.6450 280° West 508 585 36,000  Level FlightAware ADS-B
Fri 10:06:10 AM 61.7950 -26.9400 282° West 505 581 36,000  Level FlightAware ADS-B
Fri 10:06:50 AM 61.8090 -27.1100 280° West 505 581 36,000  Level FlightAware ADS-B
Fri 10:07:37 AM 61.8300 -27.3620 280° West 505 581 36,000  Level FlightAware ADS-B
Fri 10:08:13 AM 61.8440 -27.5350 280° West 505 581 36,000  Level FlightAware ADS-B
Fri 10:08:59 AM 61.8610 -27.7620 279° West 504 580 36,000  Level FlightAware ADS-B
Fri 10:09:56 AM 61.8800 -28.0090 279° West 505 581 36,000  Level FlightAware ADS-B
Fri 10:10:33 AM 61.8930 -28.1780 279° West 506 582 36,000  Level FlightAware ADS-B
Fri 10:11:48 AM 61.9110 -28.4220 279° West 505 581 36,000  Level FlightAware ADS-B
Fri 10:12:29 AM 61.9370 -28.7840 279° West 505 581 36,000  Level FlightAware ADS-B
Fri 10:13:01 AM 61.9460 -28.9180 278° West 506 582 36,000  Level FlightAware ADS-B
Fri 10:13:40 AM 61.9610 -29.1330 279° West 507 583 36,000  Level FlightAware ADS-B
Fri 10:14:13 AM 61.9700 -29.2730 278° West 507 583 36,000  Level FlightAware ADS-B
Fri 10:15:05 AM 61.9890 -29.5520 278° West 506 582 36,000  Level FlightAware ADS-B
Fri 10:15:38 AM 61.9950 -29.6580 277° West 506 582 36,000  Level FlightAware ADS-B
Fri 10:16:34 AM 62.0090 -29.8940 277° West 506 582 36,000  Level FlightAware ADS-B
Fri 10:17:24 AM 62.0210 -30.1040 277° West 506 582 36,000  Level FlightAware ADS-B
Fri 10:18:04 AM 62.0310 -30.2730 277° West 506 582 36,000  Level FlightAware ADS-B
Fri 10:18:40 AM 62.0390 -30.4240 277° West 506 582 36,000  Level FlightAware ADS-B
Fri 10:19:17 AM 62.0480 -30.5800 277° West 506 582 36,000  Level FlightAware ADS-B
Fri 10:20:04 AM 62.0600 -30.7780 277° West 506 582 36,000  Level FlightAware ADS-B
Fri 10:20:56 AM 62.0720 -30.9970 277° West 506 582 36,000  Level FlightAware ADS-B
Fri 10:21:30 AM 62.0800 -31.1410 277° West 506 582 36,000  Level FlightAware ADS-B
Fri 10:22:49 AM 62.1000 -31.4740 277° West 506 582 36,000  Level FlightAware ADS-B
Fri 10:23:26 AM 62.1090 -31.6300 277° West 506 582 36,000  Level FlightAware ADS-B
Fri 10:24:13 AM 62.1200 -31.8290 277° West 506 582 36,000  Level FlightAware ADS-B
Fri 10:24:54 AM 62.1300 -32.0020 277° West 506 582 36,000  Level FlightAware ADS-B
Fri 10:25:33 AM 62.1390 -32.1670 277° West 506 582 36,000  Level FlightAware ADS-B
Fri 10:28:00 AM 62.1445 -32.8500 271° West  Level FlightAware Approximate
Fri 10:29:00 AM 62.1458 -33.1289 271° West  Level FlightAware Approximate
Fri 10:30:00 AM 62.1465 -33.4077 270° West  Level FlightAware Approximate
Fri 10:31:00 AM 62.1467 -33.6866 270° West  Level FlightAware Approximate
Fri 10:32:00 AM 62.1463 -33.9655 270° West  Level FlightAware Approximate
Fri 10:33:00 AM 62.1454 -34.2443 270° West  Level FlightAware Approximate
Fri 10:34:00 AM 62.1439 -34.5232 269° West  Level FlightAware Approximate
Fri 10:35:00 AM 62.1418 -34.8020 269° West  Level FlightAware Approximate
Fri 10:36:00 AM 62.1392 -35.0807 269° West  Level FlightAware Approximate
Fri 10:37:00 AM 62.1360 -35.3595 269° West  Level FlightAware Approximate
Fri 10:38:00 AM 62.1322 -35.6381 268° West  Level FlightAware Approximate
Fri 10:39:00 AM 62.1279 -35.9167 268° West  Level FlightAware Approximate
Fri 10:39:16 AM 62.0833 -36.4833 267° West 500 575 36,000  Level Gander Center
Fri 10:40:00 AM 62.1231 -36.1951 268° West  Level FlightAware Approximate
Fri 10:40:16 AM 62.0833 -36.7667 270° West 500 575 36,000  Level Gander Center
Fri 10:41:00 AM 62.1176 -36.4735 268° West  Level FlightAware Approximate
Fri 10:41:16 AM 62.1000 -37.1000 276° West 500 575 36,000  Level Gander Center
Fri 10:42:00 AM 62.1116 -36.7518 267° West  Level FlightAware Approximate
Fri 10:42:16 AM 62.0833 -37.3833 263° West 500 575 36,000  Level Gander Center
Fri 10:43:00 AM 62.1051 -37.0300 267° West  Level FlightAware Approximate
Fri 10:43:16 AM 62.0667 -37.6833 263° West 500 575 36,000  Level Gander Center
Fri 10:44:00 AM 62.0980 -37.3080 267° West  Level FlightAware Approximate
Fri 10:44:16 AM 62.0667 -37.9500 270° West 500 575 36,000  Level Gander Center
Fri 10:45:16 AM 62.0667 -38.2500 270° West 500 575 36,000  Level Gander Center
Fri 10:46:16 AM 62.0667 -38.5500 270° West 500 575 36,000  Level Gander Center
Fri 10:47:16 AM 62.0500 -38.8500 263° West 500 575 36,000  Level Gander Center
Fri 10:48:16 AM 62.0333 -39.1500 263° West 500 575 36,000  Level Gander Center
Fri 10:49:16 AM 62.0333 -39.4167 270° West 500 575 36,000  Level Gander Center
Fri 10:50:16 AM 62.0167 -39.7167 263° West 500 575 36,000  Level Gander Center
Fri 10:51:16 AM 62.0333 -40.0000 277° West 500 575 36,000  Level Gander Center
Fri 10:52:16 AM 62.0333 -40.3000 270° West 500 575 36,000  Level Gander Center
Fri 10:53:16 AM 62.0500 -40.5833 277° West 500 575 36,000  Level Gander Center
Fri 10:54:16 AM 62.0500 -40.8667 270° West 500 575 36,000  Level Gander Center
Fri 10:55:16 AM 62.0667 -41.1667 277° West 500 575 36,000  Level Gander Center
Fri 10:56:16 AM 62.0667 -41.4500 270° West 500 575 36,000  Level Gander Center
Fri 10:57:16 AM 62.0833 -41.7333 277° West 500 575 36,000  Level Gander Center
Fri 10:58:16 AM 62.0833 -42.0333 270° West 500 575 36,000  Level Gander Center
Fri 10:59:16 AM 62.0833 -42.3167 270° West 490 564 36,000  Level Gander Center
Fri 11:00:16 AM 62.0833 -42.6000 270° West 490 564 36,000  Level Gander Center
Fri 11:01:16 AM 62.1000 -42.9000 277° West 490 564 36,000  Level Gander Center
Fri 11:02:16 AM 62.1000 -43.1833 270° West 490 564 36,000  Level Gander Center
Fri 11:03:16 AM 62.1000 -43.5167 270° West 490 564 36,000  Level Gander Center
Fri 11:04:16 AM 62.1000 -43.8000 270° West 490 564 36,000  Level Gander Center
Fri 11:05:16 AM 62.1167 -44.0833 277° West 490 564 36,000  Level Gander Center
Fri 11:06:16 AM 62.1167 -44.3667 270° West 500 575 36,000  Level Gander Center
Fri 11:07:16 AM 62.1167 -44.6667 270° West 500 575 36,000  Level Gander Center
Fri 11:08:16 AM 62.1167 -44.9500 270° West 490 564 36,000  Level Gander Center
Fri 11:09:16 AM 62.1167 -45.2500 270° West 490 564 36,000  Level Gander Center
Fri 11:10:16 AM 62.1167 -45.5000 270° West 490 564 36,000  Level Gander Center
Fri 11:11:16 AM 62.1167 -45.8000 270° West 490 564 36,000  Level Gander Center
Fri 11:12:16 AM 62.1167 -46.0833 270° West 490 564 36,000  Level Gander Center
Fri 11:13:16 AM 62.1167 -46.3667 270° West 490 564 36,000  Level Gander Center
Fri 11:14:16 AM 62.1000 -46.6667 263° West 490 564 36,000  Level Gander Center
Fri 11:15:16 AM 62.1000 -46.9167 270° West 490 564 36,000  Level Gander Center
Fri 11:16:16 AM 62.1000 -47.2167 270° West 490 564 36,000  Level Gander Center
Fri 11:17:16 AM 62.0833 -47.5000 263° West 490 564 36,000  Level Gander Center
Fri 11:18:16 AM 62.0833 -47.8000 270° West 490 564 36,000  Level Gander Center
Fri 11:19:16 AM 62.0833 -48.0833 270° West 490 564 36,000  Level Gander Center
Fri 11:20:16 AM 62.0833 -48.3667 270° West 490 564 36,000 293 Level Gander Center
Fri 11:26:06 AM 61.9990 -50.1210 270° West 482 555 38,000 308 Climbing FlightAware ADS-B
Fri 11:26:45 AM 61.9780 -50.2660 253° West 482 555 38,000  Level FlightAware ADS-B
Fri 11:27:34 AM 61.9510 -50.4550 253° West 482 555 38,000  Level FlightAware ADS-B
Fri 11:28:10 AM 61.9310 -50.5940 253° West 482 555 38,000  Level FlightAware ADS-B
Fri 11:28:57 AM 61.9050 -50.7750 253° West 482 555 38,000  Level FlightAware ADS-B
Fri 11:29:34 AM 61.8840 -50.9170 253° West 482 555 38,000  Level FlightAware ADS-B
Fri 11:30:12 AM 61.8630 -51.0630 253° West 482 555 38,000  Level FlightAware ADS-B
Fri 11:31:04 AM 61.8350 -51.2630 254° West 482 555 38,000  Level FlightAware ADS-B
Fri 11:31:41 AM 61.8140 -51.4050 253° West 482 555 38,000  Level FlightAware ADS-B
Fri 11:32:15 AM 61.7950 -51.5350 253° West 482 555 38,000  Level FlightAware ADS-B
Fri 11:32:55 AM 61.7730 -51.6890 253° West 482 555 38,000  Level FlightAware ADS-B
Fri 11:33:31 AM 61.7530 -51.8270 253° West 482 555 38,000  Level FlightAware ADS-B
Fri 11:34:11 AM 61.7310 -51.9800 253° West 482 555 38,000  Level FlightAware ADS-B
Fri 11:35:00 AM 61.7040 -52.1670 253° West 482 555 38,000  Level FlightAware ADS-B
Fri 11:35:38 AM 61.6820 -52.3120 252° West 482 555 38,000  Level FlightAware ADS-B
Fri 11:36:16 AM 61.5667 -52.7167 252° West 480 552 38,000  Level Gander Center
Fri 11:37:38 AM 61.5167 -53.0500 253° West 480 552 38,000  Level Gander Center
Fri 11:38:16 AM 61.4833 -53.2333 249° West 480 552 38,000  Level Gander Center
Fri 11:39:16 AM 61.4333 -53.5000 249° West 470 541 38,000  Level Gander Center
Fri 11:40:16 AM 61.3833 -53.7500 247° West 470 541 38,000  Level Gander Center
Fri 11:40:38 AM 61.3667 -53.8167 242° Southwest 470 541 38,000  Level Gander Center
Fri 11:41:16 AM 61.3500 -54.0000 259° West 470 541 38,000  Level Gander Center
Fri 11:42:38 AM 61.2833 -54.3333 248° West 470 541 38,000  Level Gander Center
Fri 11:43:16 AM 61.2333 -54.5167 241° Southwest 470 541 38,000  Level Gander Center
Fri 11:44:16 AM 61.2000 -54.7667 255° West 470 541 38,000  Level Gander Center
Fri 11:44:38 AM 61.1833 -54.8333 243° Southwest 470 541 38,000  Level Gander Center
Fri 11:45:16 AM 61.1333 -54.9833 235° Southwest 470 541 38,000  Level Gander Center
Fri 11:46:16 AM 61.1000 -55.2333 255° West 470 541 38,000  Level Gander Center
Fri 11:47:16 AM 61.0500 -55.4833 248° West 470 541 38,000  Level Gander Center
Fri 11:48:16 AM 60.9833 -55.7667 244° Southwest 480 552 38,000  Level Gander Center
Fri 11:48:38 AM 60.9833 -55.8333 270° West 480 552 38,000  Level Gander Center
Fri 11:50:16 AM 60.8833 -56.2333 243° Southwest 480 552 38,000  Level Gander Center
Fri 11:51:16 AM 60.8333 -56.5000 249° West 480 552 38,000  Level Gander Center
Fri 11:52:38 AM 60.7833 -56.8167 252° West 470 541 38,000  Level Gander Center
Fri 11:53:38 AM 60.7167 -57.1000 244° Southwest 480 552 38,000  Level Gander Center
Fri 11:54:16 AM 60.6833 -57.2333 243° Southwest 470 541 38,000  Level Gander Center
Fri 11:55:16 AM 60.6333 -57.4833 248° West 470 541 38,000  Level Gander Center
Fri 11:56:16 AM 60.5833 -57.7333 248° West 470 541 38,000  Level Gander Center
Fri 11:56:38 AM 60.5500 -57.8333 236° Southwest 470 541 38,000  Level Gander Center
Fri 11:57:38 AM 60.5167 -58.0667 254° West 470 541 38,000  Level Gander Center
Fri 11:58:38 AM 60.4500 -58.3167 242° Southwest 470 541 38,000  Level Gander Center
Fri 11:59:16 AM 60.4167 -58.4833 248° West 470 541 38,000  Level Gander Center
Fri 11:59:38 AM 60.4000 -58.5500 243° Southwest 470 541 38,000  Level Gander Center
Fri 12:00:16 PM 60.3667 -58.7333 250° West 470 541 38,000  Level Gander Center
Fri 12:01:16 PM 60.3167 -58.9667 247° West 470 541 38,000  Level Gander Center
Fri 12:01:38 PM 60.3000 -59.0333 243° Southwest 470 541 38,000  Level Gander Center
Fri 12:02:38 PM 60.2333 -59.2667 240° Southwest 470 541 38,000  Level Gander Center
Fri 12:03:38 PM 60.1833 -59.5167 248° West 470 541 38,000  Level Gander Center
Fri 12:04:16 PM 60.1333 -59.6833 239° Southwest 470 541 38,000  Level Gander Center
Fri 12:05:16 PM 60.1000 -59.9167 254° West 470 541 38,000  Level Gander Center
Fri 12:05:38 PM 60.0833 -59.9833 243° Southwest 470 541 38,000  Level Gander Center
Fri 12:06:16 PM 60.0333 -60.1500 239° Southwest 470 541 38,000  Level Gander Center
Fri 12:07:16 PM 59.9833 -60.3833 247° West 470 541 38,000  Level Gander Center
Fri 12:08:38 PM 59.9000 -60.6833 241° Southwest 460 529 38,000  Level Gander Center
Fri 12:09:04 PM 59.8667 -60.7167 207° Southwest 460 529 38,000  Level Montreal Center
Fri 12:10:04 PM 59.8167 -60.9333 245° Southwest 460 529 38,000  Level Montreal Center
Fri 12:10:38 PM 59.7833 -61.1167 250° West 460 529 38,000  Level Gander Center
Fri 12:11:16 PM 59.7500 -61.2833 248° West 450 518 38,000  Level Gander Center
Fri 12:12:38 PM 59.6667 -61.6167 244° Southwest 470 541 38,000  Level Gander Center
Fri 12:13:38 PM 59.6167 -61.8167 244° Southwest 460 529 38,000  Level Gander Center
Fri 12:14:04 PM 59.5833 -61.8500 207° Southwest 460 529 38,000  Level Montreal Center
Fri 12:14:38 PM 59.5500 -62.0333 250° West 460 529 38,000  Level Gander Center
Fri 12:15:38 PM 59.5000 -62.2667 247° West 460 529 38,000  Level Gander Center
Fri 12:16:04 PM 59.4667 -62.3000 207° Southwest 460 529 38,000  Level Montreal Center
Fri 12:16:38 PM 59.4333 -62.5000 252° West 470 541 38,000  Level Gander Center
Fri 12:17:38 PM 59.3833 -62.7167 246° West 470 541 38,000  Level Gander Center
Fri 12:18:04 PM 59.3500 -62.7500 207° Southwest 460 529 38,000  Level Montreal Center
Fri 12:19:04 PM 59.2833 -62.9833 241° Southwest 470 541 38,000  Level Montreal Center
Fri 12:20:04 PM 59.2167 -63.2000 239° Southwest 470 541 38,000  Level Montreal Center
Fri 12:20:38 PM 59.1833 -63.4000 252° West 470 541 38,000  Level Gander Center
Fri 12:21:38 PM 59.1167 -63.6167 239° Southwest 470 541 38,000  Level Gander Center
Fri 12:22:16 PM 59.0833 -63.7500 244° Southwest 470 541 38,000  Level Gander Center
Fri 12:23:16 PM 59.0333 -63.9667 246° West 470 541 38,000  Level Gander Center
Fri 12:24:04 PM 58.9667 -64.0833 222° Southwest 470 541 38,000  Level Montreal Center
Fri 12:25:04 PM 58.9167 -64.3000 246° West 470 541 38,000  Level Montreal Center
Fri 12:26:04 PM 58.8500 -64.5167 239° Southwest 470 541 38,000  Level Montreal Center
Fri 12:26:38 PM 58.8167 -64.7167 252° West 470 541 38,000  Level Gander Center
Fri 12:28:04 PM 58.7167 -64.9500 231° Southwest 470 541 38,000  Level Montreal Center
Fri 12:29:04 PM 58.6500 -65.1667 239° Southwest 460 529 38,000  Level Montreal Center
Fri 12:30:04 PM 58.5833 -65.3833 240° Southwest 470 541 38,000  Level Montreal Center
Fri 12:31:04 PM 58.5167 -65.6000 240° Southwest 470 541 38,000  Level Montreal Center
Fri 12:32:04 PM 58.4500 -65.8500 243° Southwest 470 541 38,000  Level Montreal Center
Fri 12:33:04 PM 58.3833 -66.0667 240° Southwest 470 541 38,000  Level Montreal Center
Fri 12:34:04 PM 58.3167 -66.2667 238° Southwest 470 541 38,000  Level Montreal Center
Fri 12:34:38 PM 58.2667 -66.4500 243° Southwest 470 541 38,000  Level Gander Center
Fri 12:35:04 PM 58.2500 -66.4833 226° Southwest 470 541 38,000  Level Montreal Center
Fri 12:36:04 PM 58.1833 -66.7000 240° Southwest 470 541 38,000  Level Montreal Center
Fri 12:37:04 PM 58.1000 -66.9000 232° Southwest 470 541 38,000  Level Montreal Center
Fri 12:38:04 PM 58.0333 -67.0833 236° Southwest 470 541 38,000  Level Montreal Center
Fri 12:39:04 PM 57.9667 -67.2833 238° Southwest 460 529 38,000  Level Montreal Center
Fri 12:40:04 PM 57.9000 -67.5000 240° Southwest 470 541 38,000  Level Montreal Center
Fri 12:41:04 PM 57.8167 -67.7000 232° Southwest 470 541 38,000  Level Montreal Center
Fri 12:42:04 PM 57.7500 -67.8833 236° Southwest 470 541 38,000  Level Montreal Center
Fri 12:43:04 PM 57.6667 -68.0833 232° Southwest 470 541 38,000  Level Montreal Center
Fri 12:44:04 PM 57.5833 -68.3000 234° Southwest 470 541 38,000  Level Montreal Center
Fri 12:45:04 PM 57.5167 -68.5000 238° Southwest 470 541 38,000  Level Montreal Center
Fri 12:46:04 PM 57.4500 -68.7000 238° Southwest 470 541 38,000  Level Montreal Center
Fri 12:47:04 PM 57.3667 -68.8667 227° Southwest 470 541 38,000  Level Montreal Center
Fri 12:48:04 PM 57.2833 -69.0833 235° Southwest 470 541 38,000  Level Montreal Center
Fri 12:49:04 PM 57.2000 -69.3000 235° Southwest 470 541 38,000  Level Montreal Center
Fri 12:50:04 PM 57.1333 -69.4833 236° Southwest 470 541 38,000  Level Montreal Center
Fri 12:51:04 PM 57.0333 -69.6833 227° Southwest 470 541 38,000  Level Montreal Center
Fri 12:52:04 PM 56.9667 -69.8833 239° Southwest 470 541 38,000  Level Montreal Center
Fri 12:53:04 PM 56.8833 -70.0667 230° Southwest 470 541 38,000  Level Montreal Center
Fri 12:54:04 PM 56.8167 -70.2667 239° Southwest 470 541 38,000  Level Montreal Center
Fri 12:55:04 PM 56.7333 -70.4667 233° Southwest 470 541 38,000  Level Montreal Center
Fri 12:56:04 PM 56.6500 -70.6333 228° Southwest 470 541 38,000  Level Montreal Center
Fri 12:57:04 PM 56.5667 -70.8333 233° Southwest 460 529 38,000  Level Montreal Center
Fri 12:58:04 PM 56.4667 -71.0167 225° Southwest 470 541 38,000  Level Montreal Center
Fri 12:59:04 PM 56.4000 -71.2167 239° Southwest 470 541 38,000  Level Montreal Center
Fri 01:00:04 PM 56.3167 -71.4000 231° Southwest 470 541 38,000  Level Montreal Center
Fri 01:00:38 PM 56.2500 -71.5500 231° Southwest 480 552 38,000  Level Gander Center
Fri 01:01:38 PM 56.1833 -71.7167 234° Southwest 480 552 38,000  Level Gander Center
Fri 01:02:04 PM 56.1333 -71.7667 209° Southwest 480 552 38,000  Level Montreal Center
Fri 01:03:04 PM 56.0333 -71.9167 220° Southwest 480 552 38,000  Level Montreal Center
Fri 01:04:04 PM 55.9333 -72.0833 223° Southwest 480 552 38,000  Level Montreal Center
Fri 01:05:04 PM 55.8500 -72.2500 228° Southwest 480 552 38,000  Level Montreal Center
Fri 01:06:04 PM 55.7500 -72.4000 220° Southwest 480 552 38,000  Level Montreal Center
Fri 01:07:04 PM 55.6500 -72.5667 223° Southwest 480 552 38,000  Level Montreal Center
Fri 01:08:04 PM 55.5500 -72.7167 220° Southwest 480 552 38,000  Level Montreal Center
Fri 01:09:04 PM 55.4500 -72.9000 226° Southwest 480 552 38,000  Level Montreal Center
Fri 01:10:38 PM 55.3000 -73.1833 227° Southwest 480 552 38,000  Level Gander Center
Fri 01:11:04 PM 55.2667 -73.2167 210° Southwest 480 552 38,000  Level Montreal Center
Fri 01:12:04 PM 55.1667 -73.4000 226° Southwest 480 552 38,000  Level Montreal Center
Fri 01:13:04 PM 55.0667 -73.5500 221° Southwest 470 541 38,000  Level Montreal Center
Fri 01:14:04 PM 54.9667 -73.7000 221° Southwest 470 541 38,000  Level Montreal Center
Fri 01:15:04 PM 54.8667 -73.8500 221° Southwest 480 552 38,000  Level Montreal Center
Fri 01:16:04 PM 54.7667 -74.0000 221° Southwest 480 552 38,000  Level Montreal Center
Fri 01:17:04 PM 54.6667 -74.1500 221° Southwest 470 541 38,000  Level Montreal Center
Fri 01:18:04 PM 54.5667 -74.3000 221° Southwest 480 552 38,000  Level Montreal Center
Fri 01:19:04 PM 54.4833 -74.4500 226° Southwest 470 541 38,000  Level Montreal Center
Fri 01:20:04 PM 54.3833 -74.6000 221° Southwest 480 552 38,000  Level Montreal Center
Fri 01:21:04 PM 54.2667 -74.7833 223° Southwest 480 552 38,000  Level Montreal Center
Fri 01:22:04 PM 54.1667 -74.9333 221° Southwest 480 552 38,000  Level Montreal Center
Fri 01:23:04 PM 54.0667 -75.0667 218° Southwest 480 552 38,000  Level Montreal Center
Fri 01:24:04 PM 53.9667 -75.2167 221° Southwest 480 552 38,000  Level Montreal Center
Fri 01:25:04 PM 53.8667 -75.4000 227° Southwest 480 552 38,000  Level Montreal Center
Fri 01:26:04 PM 53.7667 -75.5333 218° Southwest 480 552 38,000  Level Montreal Center
Fri 01:27:04 PM 53.6667 -75.6833 222° Southwest 480 552 38,000  Level Montreal Center
Fri 01:28:04 PM 53.5667 -75.8167 218° Southwest 480 552 38,000  Level Montreal Center
Fri 01:29:04 PM 53.4500 -75.9667 217° Southwest 480 552 38,000  Level Montreal Center
Fri 01:30:04 PM 53.3500 -76.1000 219° Southwest 480 552 38,000  Level Montreal Center
Fri 01:31:04 PM 53.2500 -76.2667 225° Southwest 480 552 38,000  Level Montreal Center
Fri 01:32:04 PM 53.1500 -76.4167 222° Southwest 480 552 38,000  Level Montreal Center
Fri 01:33:04 PM 53.0500 -76.5500 219° Southwest 480 552 38,000  Level Montreal Center
Fri 01:34:04 PM 52.9500 -76.6833 219° Southwest 480 552 38,000  Level Montreal Center
Fri 01:35:04 PM 52.8500 -76.8333 222° Southwest 480 552 38,000  Level Montreal Center
Fri 01:36:04 PM 52.7333 -77.0000 221° Southwest 480 552 38,000  Level Montreal Center
Fri 01:37:04 PM 52.6333 -77.1333 219° Southwest 480 552 38,000  Level Montreal Center
Fri 01:38:04 PM 52.5333 -77.2667 219° Southwest 480 552 38,000  Level Montreal Center
Fri 01:39:04 PM 52.4167 -77.4000 215° Southwest 480 552 38,000  Level Montreal Center
Fri 01:40:04 PM 52.3167 -77.5667 226° Southwest 480 552 38,000  Level Montreal Center
Fri 01:41:04 PM 52.2167 -77.7000 219° Southwest 480 552 38,000  Level Montreal Center
Fri 01:42:04 PM 52.1167 -77.8333 219° Southwest 480 552 38,000  Level Montreal Center
Fri 01:43:04 PM 52.0167 -77.9667 219° Southwest 490 564 38,000  Level Montreal Center
Fri 01:44:04 PM 51.9000 -78.1167 218° Southwest 490 564 38,000  Level Montreal Center
Fri 01:45:04 PM 51.8000 -78.2500 220° Southwest 480 552 38,000  Level Montreal Center
Fri 01:46:04 PM 51.7000 -78.3833 220° Southwest 490 564 38,000  Level Montreal Center
Fri 01:47:04 PM 51.6000 -78.5167 220° Southwest 490 564 38,000  Level Montreal Center
Fri 01:48:04 PM 51.5000 -78.6667 223° Southwest 480 552 38,000  Level Montreal Center
Fri 01:49:04 PM 51.3667 -78.8000 212° Southwest 480 552 38,000  Level Montreal Center
Fri 01:50:04 PM 51.2667 -78.9167 216° Southwest 480 552 38,000  Level Montreal Center
Fri 01:51:04 PM 51.1667 -79.0500 220° Southwest 480 552 38,000  Level Montreal Center
Fri 01:52:04 PM 51.0500 -79.2000 219° Southwest 480 552 38,000  Level Montreal Center
Fri 01:53:04 PM 50.9500 -79.3333 220° Southwest 490 564 38,000  Level Montreal Center
Fri 01:54:04 PM 50.8500 -79.4500 216° Southwest 480 552 38,000  Level Montreal Center
Fri 01:55:04 PM 50.7500 -79.5833 220° Southwest 480 552 38,000  Level Montreal Center
Fri 01:56:04 PM 50.6167 -79.7000 209° Southwest 490 564 38,000  Level Montreal Center
Fri 01:57:04 PM 50.5333 -79.8500 229° Southwest 490 564 38,000  Level Montreal Center
Fri 01:58:04 PM 50.4167 -79.9833 216° Southwest 490 564 38,000  Level Montreal Center
Fri 01:59:04 PM 50.3000 -80.1000 213° Southwest 480 552 38,000  Level Montreal Center
Fri 02:00:04 PM 50.2000 -80.2500 224° Southwest 490 564 38,000  Level Montreal Center
Fri 02:01:04 PM 50.1000 -80.3667 217° Southwest 490 564 38,000  Level Montreal Center
Fri 02:02:04 PM 49.9667 -80.4833 209° Southwest 490 564 38,000  Level Montreal Center
Fri 02:03:04 PM 49.8667 -80.6167 221° Southwest 490 564 38,000  Level Montreal Center
Fri 02:04:04 PM 49.7667 -80.7333 217° Southwest 490 564 38,000  Level Montreal Center
Fri 02:05:04 PM 49.6500 -80.8833 220° Southwest 480 552 38,000  Level Montreal Center
Fri 02:06:04 PM 49.5500 -81.0000 217° Southwest 480 552 38,000  Level Montreal Center
Fri 02:07:04 PM 49.4333 -81.1167 213° Southwest 480 552 38,000  Level Montreal Center
Fri 02:08:04 PM 49.3333 -81.2333 217° Southwest 480 552 38,000  Level Montreal Center
Fri 02:09:04 PM 49.2167 -81.3833 220° Southwest 480 552 38,000  Level Montreal Center
Fri 02:10:04 PM 49.1167 -81.5000 217° Southwest 480 552 38,000  Level Montreal Center
Fri 02:11:04 PM 49.0000 -81.6333 217° Southwest 490 564 38,000  Level Montreal Center
Fri 02:12:04 PM 48.8833 -81.7500 213° Southwest 490 564 38,000  Level Montreal Center
Fri 02:13:04 PM 48.7833 -81.8667 218° Southwest 490 564 38,000  Level Montreal Center
Fri 02:14:04 PM 48.6667 -81.9833 213° Southwest 490 564 38,000  Level Montreal Center
Fri 02:15:04 PM 48.5667 -82.0833 214° Southwest 490 564 38,000  Level Montreal Center
Fri 02:16:04 PM 48.4333 -82.2333 217° Southwest 490 564 38,000  Level Montreal Center
Fri 02:17:04 PM 48.3500 -82.3500 223° Southwest 470 541 38,000  Level Montreal Center
Fri 02:18:04 PM 48.2167 -82.4500 207° Southwest 470 541 38,000  Level Montreal Center
Fri 02:18:52 PM 48.1500 -82.5333 220° Southwest 470 541 38,000  Level Toronto Center
Fri 02:24:47 PM 47.5340 -83.1820 220° Southwest 461 531 38,000  Level FlightAware ADS-B
Fri 02:25:55 PM 47.4320 -83.2880 215° Southwest 458 527 38,000  Level FlightAware ADS-B
Fri 02:26:38 PM 47.3380 -83.3850 215° Southwest 456 525 38,000  Level FlightAware ADS-B
Fri 02:27:34 PM 47.2490 -83.4750 214° Southwest 454 522 38,000  Level FlightAware ADS-B
Fri 02:28:10 PM 47.1960 -83.5280 214° Southwest 454 522 38,000  Level FlightAware ADS-B
Fri 02:28:58 PM 47.0960 -83.6310 215° Southwest 451 519 38,000  Level FlightAware ADS-B
Fri 02:29:38 PM 47.0530 -83.6760 215° Southwest 450 518 38,000  Level FlightAware ADS-B
Fri 02:30:22 PM 46.9530 -83.7760 214° Southwest 450 518 38,000  Level FlightAware ADS-B
Fri 02:30:58 PM 46.8910 -83.8390 215° Southwest 450 518 38,000  Level FlightAware ADS-B
Fri 02:31:45 PM 46.8110 -83.9190 214° Southwest 451 519 38,000  Level FlightAware ADS-B
Fri 02:32:28 PM 46.7370 -83.9930 214° Southwest 452 520 38,000  Level FlightAware ADS-B
Fri 02:33:10 PM 46.6630 -84.0660 214° Southwest 451 519 38,000  Level FlightAware ADS-B
Fri 02:33:54 PM 46.5880 -84.1410 215° Southwest 452 520 38,000  Level FlightAware ADS-B
Fri 02:34:31 PM 46.5260 -84.2020 214° Southwest 453 521 38,000  Level FlightAware ADS-B
Fri 02:35:18 PM 46.4440 -84.2830 214° Southwest 456 525 38,000  Level FlightAware ADS-B
Fri 02:35:58 PM 46.3620 -84.3300 202° Southwest 477 549 38,000  Level FlightAware ADS-B
Fri 02:36:42 PM 46.2660 -84.3660 195° South 479 551 38,000  Level FlightAware ADS-B
Fri 02:37:24 PM 46.1770 -84.3970 194° South 481 554 38,000  Level FlightAware ADS-B
Fri 02:38:04 PM 46.0900 -84.4270 193° South 483 556 38,000  Level FlightAware ADS-B
Fri 02:38:47 PM 45.9970 -84.4580 193° South 485 558 38,000  Level FlightAware ADS-B
Fri 02:39:28 PM 45.9060 -84.4890 193° South 486 559 38,000  Level FlightAware ADS-B
Fri 02:40:04 PM 45.8270 -84.5160 193° South 486 559 38,000  Level FlightAware ADS-B
Fri 02:40:54 PM 45.7220 -84.5520 193° South 487 560 38,000  Level FlightAware ADS-B
Fri 02:41:34 PM 45.6330 -84.5820 193° South 487 560 38,000  Level FlightAware ADS-B
Fri 02:42:16 PM 45.5530 -84.6090 193° South 488 562 38,000  Level FlightAware ADS-B
Fri 02:42:58 PM 45.4460 -84.6450 193° South 489 563 38,000  Level FlightAware ADS-B
Fri 02:43:47 PM 45.3590 -84.6740 193° South 496 571 38,000  Level FlightAware ADS-B
Fri 02:44:38 PM 45.2240 -84.7190 193° South 499 574 38,000  Level FlightAware ADS-B
Fri 02:45:18 PM 45.1350 -84.7490 193° South 500 575 38,000 -220 Level FlightAware ADS-B
Fri 02:46:00 PM 45.0390 -84.7810 193° South 494 568 37,700 -659 Descending FlightAware ADS-B
Fri 02:46:40 PM 44.9520 -84.8090 193° South 487 560 37,100 -977 Descending FlightAware ADS-B
Fri 02:47:26 PM 44.8520 -84.8420 193° South 479 551 36,300 -1,636 Descending FlightAware ADS-B
Fri 02:48:08 PM 44.7600 -84.8730 193° South 496 571 34,700 -1,976 Descending FlightAware ADS-B
Fri 02:48:48 PM 44.6720 -84.9020 193° South 504 580 33,600 -1,537 Descending FlightAware ADS-B
Fri 02:49:30 PM 44.5740 -84.9330 193° South 502 578 32,600 -980 Descending FlightAware ADS-B
Fri 02:50:26 PM 44.4470 -84.9740 193° South 506 582 32,000 -387 Descending FlightAware ADS-B
Fri 02:51:03 PM 44.3620 -85.0020 193° South 508 585 32,000  Level FlightAware ADS-B
Fri 02:51:50 PM 44.2560 -85.0360 193° South 511 588 32,000  Level FlightAware ADS-B
Fri 02:52:30 PM 44.1630 -85.0660 193° South 511 588 32,000  Level FlightAware ADS-B
Fri 02:53:16 PM 44.0570 -85.1000 193° South 511 588 32,000  Level FlightAware ADS-B
Fri 02:53:59 PM 43.9590 -85.1310 193° South 512 589 32,000  Level FlightAware ADS-B
Fri 02:54:35 PM 43.8760 -85.1580 193° South 513 590 32,000  Level FlightAware ADS-B
Fri 02:55:19 PM 43.7740 -85.1920 194° South 509 586 32,000  Level FlightAware ADS-B
Fri 02:56:01 PM 43.6840 -85.2470 204° Southwest 497 572 32,000  Level FlightAware ADS-B
Fri 02:56:46 PM 43.6000 -85.3280 215° Southwest 491 565 32,000  Level FlightAware ADS-B
Fri 02:57:26 PM 43.5280 -85.4010 216° Southwest 491 565 32,000  Level FlightAware ADS-B
Fri 02:58:06 PM 43.4550 -85.4750 216° Southwest 490 564 32,000  Level FlightAware ADS-B
Fri 02:58:52 PM 43.3710 -85.5590 216° Southwest 488 562 32,000 -75 Level FlightAware ADS-B
Fri 02:59:26 PM 43.3090 -85.6210 216° Southwest 489 563 31,900 -796 Descending FlightAware ADS-B
Fri 03:00:30 PM 43.1910 -85.7370 216° Southwest 485 558 30,700 -1,886 Descending FlightAware ADS-B
Fri 03:01:11 PM 43.1160 -85.8110 216° Southwest 489 563 28,600 -2,047 Descending FlightAware ADS-B
Fri 03:01:55 PM 43.0430 -85.8830 216° Southwest 482 555 27,800 -1,143 Descending FlightAware ADS-B
Fri 03:02:35 PM 42.9640 -85.9610 216° Southwest 479 551 27,000 -1,390 Descending FlightAware ADS-B
Fri 03:03:17 PM 42.8960 -86.0430 221° Southwest 459 528 25,900 -2,047 Descending FlightAware ADS-B
Fri 03:04:00 PM 42.8450 -86.1470 236° Southwest 440 506 24,100 -2,268 Descending FlightAware ADS-B
Fri 03:04:39 PM 42.8110 -86.2340 242° Southwest 430 495 22,800 -2,084 Descending FlightAware ADS-B
Fri 03:05:35 PM 42.7570 -86.3690 241° Southwest 416 479 20,800 -1,851 Descending FlightAware ADS-B
Fri 03:06:13 PM 42.7220 -86.4560 241° Southwest 410 472 19,900 -1,024 Descending FlightAware ADS-B
Fri 03:06:57 PM 42.6930 -86.5270 241° Southwest 409 471 19,400 -933 Descending FlightAware ADS-B
Fri 03:07:43 PM 42.6410 -86.6560 241° Southwest 403 464 18,500 -1,348 Descending FlightAware ADS-B
Fri 03:08:26 PM 42.6030 -86.7490 241° Southwest 395 455 17,400 -1,906 Descending FlightAware ADS-B
Fri 03:09:08 PM 42.5660 -86.8410 241° Southwest 390 449 15,800 -2,278 Descending FlightAware ADS-B
Fri 03:09:45 PM 42.5340 -86.9180 241° Southwest 385 443 14,400 -2,258 Descending FlightAware ADS-B
Fri 03:10:41 PM 42.4860 -87.0370 241° Southwest 379 436 12,300 -1,774 Descending FlightAware ADS-B
Fri 03:11:40 PM 42.4560 -87.1130 242° Southwest 374 430 11,000 -1,471 Descending FlightAware ADS-B
Fri 03:12:23 PM 42.4170 -87.2510 249° West 352 405 9,800 -986 Descending FlightAware ADS-B
Fri 03:12:53 PM 42.4000 -87.3130 250° West 350 403 9,800  Level FlightAware ADS-B
Fri 03:13:20 PM 42.3850 -87.3660 249° West 351 404 9,800  Level FlightAware ADS-B
Fri 03:13:47 PM 42.3700 -87.4200 249° West 351 404 9,800  Level FlightAware ADS-B
Fri 03:14:15 PM 42.3540 -87.4810 250° West 353 406 9,800  Level FlightAware ADS-B
Fri 03:14:43 PM 42.3330 -87.5340 242° Southwest 355 409 9,800  Level FlightAware ADS-B
Fri 03:15:26 PM 42.2800 -87.5970 221° Southwest 356 410 9,800  Level FlightAware ADS-B
Fri 03:15:53 PM 42.2440 -87.6350 218° Southwest 357 411 9,800  Level FlightAware ADS-B
Fri 03:16:21 PM 42.2090 -87.6710 217° Southwest 326 375 9,800 -111 Level FlightAware ADS-B
Fri 03:16:47 PM 42.1790 -87.7030 218° Southwest 302 348 9,700 -632 Descending FlightAware ADS-B
Fri 03:17:18 PM 42.1470 -87.7370 218° Southwest 294 338 9,200 -1,071 Descending FlightAware ADS-B
Fri 03:17:43 PM 42.1260 -87.7600 219° Southwest 293 337 8,700 -1,385 Descending FlightAware ADS-B
Fri 03:17:57 PM 42.1120 -87.7880 236° Southwest 290 334 8,300 -1,286 Descending FlightAware ADS-B
Fri 03:18:25 PM 42.1010 -87.8230 247° West 287 330 7,800 -1,393 Descending FlightAware ADS-B
Fri 03:18:53 PM 42.0820 -87.8820 247° West 283 326 7,000 -1,317 Descending FlightAware ADS-B
Fri 03:19:06 PM 42.0770 -87.8970 246° West 281 323 6,900 -267 Descending FlightAware ADS-B
Fri 03:19:38 PM 42.0600 -87.9540 248° West 280 322 6,800 -109 Descending FlightAware ADS-B
Fri 03:20:01 PM 42.0570 -87.9920 264° West 256 295 6,800  Level FlightAware ADS-B
Fri 03:20:27 PM 42.0550 -88.0310 266° West 236 272 6,800 -102 Level FlightAware ADS-B
Fri 03:21:00 PM 42.0550 -88.0430 270° West 231 266 6,700 -968 Descending FlightAware ADS-B
Fri 03:21:29 PM 42.0530 -88.1200 268° West 227 261 5,800 -1,467 Descending FlightAware ADS-B
Fri 03:21:45 PM 42.0520 -88.1360 265° West 223 257 5,600 -789 Descending FlightAware ADS-B
Fri 03:22:07 PM 42.0530 -88.1720 272° West 208 239 5,300 -906 Descending FlightAware ADS-B
Fri 03:22:38 PM 42.0460 -88.2060 255° West 190 219 4,800 -955 Descending FlightAware ADS-B
Fri 03:22:51 PM 42.0360 -88.2130 207° Southwest 180 207 4,600 -1,161 Descending FlightAware ADS-B
Fri 03:23:09 PM 42.0200 -88.2150 185° South 179 206 4,200 -1,091 Descending FlightAware ADS-B
Fri 03:23:35 PM 42.0000 -88.2140 178° South 182 209 3,800 -436 Descending FlightAware ADS-B
Fri 03:24:04 PM 41.9820 -88.1980 147° Southeast 180 207 3,800 122 Level FlightAware ADS-B
Fri 03:24:24 PM 41.9740 -88.1760 116° Southeast 177 204 3,900  Climbing FlightAware ADS-B
Fri 03:24:44 PM 41.9680 -88.1560 112° Southeast 180 207 3,800 -600 Descending FlightAware ADS-B
Fri 03:24:54 PM 41.9670 -88.1440 96° East 178 205 3,600 -1,050 Descending FlightAware ADS-B
Fri 03:25:24 PM 41.9680 -88.1110 88° East 176 203 3,100 -1,017 Descending FlightAware ADS-B
Fri 03:25:53 PM 41.9690 -88.0790 88° East 179 206 2,600 -904 Descending FlightAware ADS-B
Fri 03:26:37 PM 41.9690 -88.0330 90° East 174 200 2,000 -892 Descending FlightAware ADS-B
Fri 03:27:07 PM 41.9690 -88.0020 90° East 154 177 1,500 -828 Descending FlightAware ADS-B
Fri 03:27:35 PM 41.9690 -87.9760 90° East 146 168 1,200 -778 Descending FlightAware ADS-B
Fri 03:28:01 PM 41.9690 -87.9510 90° East 145 167 800 -840 Descending FlightAware ADS-B
Fri 03:28:25 PM 41.9690 -87.9300 90° East 145 167 500 -353 Descending FlightAware ADS-B
Fri 03:28:52 PM 41.9690 -87.9100 90° East 145 167 500  Level FlightAware ADS-B
Fri 03:29:21 PM 41.9690 -87.8990 90° East 39 45 -1,034 Descending FlightAware ADS-B
Fri 03:29:49 PM 41.9690 -87.8930 90° East 39 45  Level FlightAware ADS-B

Login

Don't have an account? Register now (free) for customized features, flight alerts, and more!